Time;durP1;ratioP1;P1;durP2;ratioP2;P2;SDS_P1;SDS_P2;PMS_P1;PMS_P2;Temp;Humidity;BMP_temperature;BMP_pressure;BME280_temperature;BME280_humidity;BME280_pressure;Samples;Min_cycle;Max_cycle;Signal;HPM_P1;HPM_P2
2022/04/19 00:02:05;;;;;;;9.90;7.87;;;13.70;99.90;;;;;;5064478;28;20723;-53
2022/04/19 00:04:32;;;;;;;10.63;8.60;;;13.70;99.90;;;;;;5062313;28;20226;-53
2022/04/19 00:06:58;;;;;;;9.90;8.20;;;13.70;99.90;;;;;;5067263;28;20516;-53
2022/04/19 00:09:25;;;;;;;9.43;8.50;;;13.60;99.90;;;;;;5049270;28;20221;-53
2022/04/19 00:11:52;;;;;;;9.57;7.90;;;13.60;99.90;;;;;;5067423;28;20245;-53
2022/04/19 00:14:19;;;;;;;10.00;8.47;;;13.60;99.90;;;;;;5065549;28;20719;-53
2022/04/19 00:16:46;;;;;;;11.67;8.77;;;13.50;99.90;;;;;;5064893;28;20644;-53
2022/04/19 00:19:13;;;;;;;11.63;8.00;;;13.50;99.90;;;;;;5064635;28;20206;-53
2022/04/19 00:21:40;;;;;;;9.17;8.10;;;13.40;99.90;;;;;;5059318;28;20225;-53
2022/04/19 00:24:07;;;;;;;12.23;8.83;;;13.30;99.90;;;;;;5062617;28;20197;-53
2022/04/19 00:26:34;;;;;;;11.70;8.23;;;13.20;99.90;;;;;;5043292;28;20326;-55
2022/04/19 00:29:01;;;;;;;14.00;9.47;;;13.20;99.90;;;;;;5065238;28;20219;-53
2022/04/19 00:31:28;;;;;;;10.53;8.80;;;13.20;99.90;;;;;;5063170;28;20209;-53
2022/04/19 00:33:55;;;;;;;9.77;8.57;;;13.10;99.90;;;;;;5065635;28;20543;-53
2022/04/19 00:36:23;;;;;;;9.97;8.47;;;13.10;99.90;;;;;;5064915;28;20208;-53
2022/04/19 00:38:50;;;;;;;10.53;8.43;;;13.10;99.90;;;;;;5065418;28;20677;-53
2022/04/19 00:41:17;;;;;;;10.47;8.70;;;13.20;99.90;;;;;;5065183;28;20761;-53
2022/04/19 00:43:44;;;;;;;9.17;8.07;;;13.20;99.90;;;;;;5067950;28;20594;-53
2022/04/19 00:46:11;;;;;;;11.57;8.87;;;13.10;99.90;;;;;;5065102;28;20195;-53
2022/04/19 00:48:38;;;;;;;9.53;8.53;;;13.10;99.90;;;;;;5067434;28;20230;-53
2022/04/19 00:51:05;;;;;;;9.73;8.50;;;13.10;99.90;;;;;;5061913;28;20295;-51
2022/04/19 00:53:34;;;;;;;10.47;7.93;;;13.00;99.90;;;;;;5061793;28;20585;-51
2022/04/19 00:56:02;;;;;;;10.13;8.63;;;12.70;99.90;;;;;;5062080;28;20277;-53
2022/04/19 00:58:29;;;;;;;9.83;8.40;;;12.60;99.90;;;;;;5058997;28;20308;-52
2022/04/19 01:00:59;;;;;;;9.53;8.53;;;12.80;99.90;;;;;;5066237;28;20650;-52
2022/04/19 01:03:26;;;;;;;10.47;7.80;;;12.80;99.90;;;;;;5063958;28;20202;-53
2022/04/19 01:05:55;;;;;;;11.17;8.50;;;12.70;99.90;;;;;;5047889;28;20205;-53
2022/04/19 01:08:23;;;;;;;13.77;8.83;;;12.70;99.90;;;;;;5059315;28;20566;-53
2022/04/19 01:13:17;;;;;;;9.47;7.70;;;12.50;99.90;;;;;;5063722;28;20202;-52
2022/04/19 01:13:42;;;;;;;8.20;7.27;;;12.60;99.90;;;;;;5060279;28;20215;-53
2022/04/19 01:16:09;;;;;;;10.07;7.43;;;12.70;99.90;;;;;;5064791;28;20204;-52
2022/04/19 01:18:36;;;;;;;10.57;7.67;;;12.70;99.90;;;;;;5060728;28;20525;-53
2022/04/19 01:21:04;;;;;;;9.13;8.20;;;12.70;99.90;;;;;;5063991;28;20625;-53
2022/04/19 01:23:31;;;;;;;10.83;8.07;;;12.70;99.90;;;;;;5062356;28;20192;-53
2022/04/19 01:25:58;;;;;;;9.63;7.67;;;12.70;99.90;;;;;;5061897;28;20199;-53
2022/04/19 01:28:25;;;;;;;10.40;8.03;;;12.60;99.90;;;;;;5062559;28;20279;-53
2022/04/19 01:30:54;;;;;;;9.90;8.43;;;12.50;99.90;;;;;;5063844;28;20634;-53
2022/04/19 01:33:21;;;;;;;10.17;7.87;;;12.50;99.90;;;;;;5060252;28;20212;-54
2022/04/19 01:35:49;;;;;;;10.70;8.37;;;12.40;99.90;;;;;;5059749;28;20686;-53
2022/04/19 01:38:16;;;;;;;11.73;8.10;;;12.40;99.90;;;;;;5064538;28;20635;-52
2022/04/19 01:40:42;;;;;;;12.07;7.63;;;12.50;99.90;;;;;;5061787;28;20261;-52
2022/04/19 01:43:09;;;;;;;10.83;8.60;;;12.50;99.90;;;;;;5064934;28;20205;-53
2022/04/19 01:45:37;;;;;;;10.50;7.83;;;12.50;99.90;;;;;;5062042;28;20286;-53
2022/04/19 01:48:04;;;;;;;10.20;8.07;;;12.40;99.90;;;;;;5058927;28;20247;-52
2022/04/19 01:50:32;;;;;;;11.07;8.40;;;12.40;99.90;;;;;;5056682;28;20639;-53
2022/04/19 01:53:02;;;;;;;9.87;8.13;;;12.30;99.90;;;;;;5057413;28;20316;-55
2022/04/19 01:55:29;;;;;;;11.27;8.47;;;12.30;99.90;;;;;;5060942;28;20222;-54
2022/04/19 01:57:58;;;;;;;10.23;8.23;;;12.30;99.90;;;;;;5060209;28;20756;-54
2022/04/19 02:00:26;;;;;;;10.00;8.40;;;12.30;99.90;;;;;;5056132;28;20502;-53
2022/04/19 02:02:55;;;;;;;9.97;8.20;;;12.20;99.90;;;;;;5055962;28;20257;-53
2022/04/19 02:05:23;;;;;;;10.87;9.43;;;12.20;99.90;;;;;;5057838;28;20195;-52
2022/04/19 02:07:50;;;;;;;10.57;7.87;;;12.20;99.90;;;;;;5059523;28;20203;-53
2022/04/19 02:10:18;;;;;;;11.13;8.77;;;12.20;99.90;;;;;;5061257;28;20593;-53
2022/04/19 02:12:45;;;;;;;11.53;8.73;;;12.20;99.90;;;;;;5057435;28;20305;-53
2022/04/19 02:15:14;;;;;;;9.97;8.73;;;12.20;99.90;;;;;;5060901;28;20207;-53
2022/04/19 02:17:49;;;;;;;11.20;8.80;;;12.20;99.90;;;;;;5057878;28;21723;-53
2022/04/19 02:20:18;;;;;;;12.17;8.77;;;12.10;99.90;;;;;;5059351;28;20217;-53
2022/04/19 02:22:45;;;;;;;16.73;9.90;;;12.00;99.90;;;;;;5043361;28;20572;-53
2022/04/19 02:25:14;;;;;;;10.40;8.40;;;11.90;99.90;;;;;;5058998;28;20205;-53
2022/04/19 02:27:42;;;;;;;11.60;8.73;;;11.90;99.90;;;;;;5057713;28;20279;-53
2022/04/19 02:30:13;;;;;;;12.23;9.10;;;11.90;99.90;;;;;;5054678;28;20196;-53
2022/04/19 02:32:42;;;;;;;11.33;8.80;;;11.90;99.90;;;;;;5062521;28;20774;-53
2022/04/19 02:35:09;;;;;;;10.10;8.83;;;11.90;99.90;;;;;;5056289;28;20204;-53
2022/04/19 02:37:37;;;;;;;12.67;9.37;;;11.80;99.90;;;;;;5061883;28;20198;-53
2022/04/19 02:40:04;;;;;;;10.57;8.70;;;11.80;99.90;;;;;;5054718;28;20841;-53
2022/04/19 02:42:31;;;;;;;10.57;9.07;;;11.80;99.90;;;;;;5060802;28;20192;-55
2022/04/19 02:44:58;;;;;;;10.80;9.30;;;11.80;99.90;;;;;;5041053;28;20188;-54
2022/04/19 02:47:25;;;;;;;11.53;8.70;;;11.90;99.90;;;;;;5059000;28;20188;-55
2022/04/19 02:49:51;;;;;;;14.63;10.20;;;12.00;99.90;;;;;;5054352;28;20225;-54
2022/04/19 02:52:18;;;;;;;12.20;10.17;;;11.90;99.90;;;;;;5053795;28;20203;-53
2022/04/19 02:54:45;;;;;;;11.83;10.33;;;11.90;99.90;;;;;;5059354;28;20298;-52
2022/04/19 02:57:12;;;;;;;13.83;10.17;;;11.90;99.90;;;;;;5063376;28;20311;-53
2022/04/19 02:59:42;;;;;;;12.60;10.87;;;11.80;99.90;;;;;;5065682;28;20281;-53
2022/04/19 03:02:09;;;;;;;14.67;11.00;;;11.90;99.90;;;;;;5042666;28;20230;-53
2022/04/19 03:04:36;;;;;;;12.80;11.00;;;11.90;99.90;;;;;;5061718;28;20187;-54
2022/04/19 03:07:03;;;;;;;12.83;10.23;;;11.90;99.90;;;;;;5070180;28;20205;-53
2022/04/19 03:09:29;;;;;;;12.17;10.37;;;11.80;99.90;;;;;;5064064;28;20210;-52
2022/04/19 03:11:56;;;;;;;13.33;11.40;;;11.80;99.90;;;;;;5068540;28;20257;-53
2022/04/19 03:14:25;;;;;;;14.50;10.90;;;11.80;99.90;;;;;;5062721;28;20306;-53
2022/04/19 03:16:52;;;;;;;11.43;10.23;;;11.70;99.90;;;;;;5067949;28;20207;-52
2022/04/19 03:19:19;;;;;;;14.87;11.30;;;11.70;99.90;;;;;;5066590;28;20273;-53
2022/04/19 03:21:46;;;;;;;15.87;11.67;;;11.80;99.90;;;;;;5069785;28;20219;-55
2022/04/19 03:27:43;;;;;;;13.20;11.80;;;11.70;99.90;;;;;;5068745;28;20231;-53
2022/04/19 03:29:45;;;;;;;12.80;11.50;;;11.60;99.90;;;;;;5056412;28;20282;-53
2022/04/19 03:32:12;;;;;;;15.70;11.33;;;11.60;99.90;;;;;;5065613;28;20232;-50
2022/04/19 03:34:39;;;;;;;15.23;12.20;;;11.50;99.90;;;;;;5066438;28;20220;-53
2022/04/19 03:37:06;;;;;;;13.17;11.60;;;11.50;99.90;;;;;;5066576;28;20375;-55
2022/04/19 03:39:33;;;;;;;16.17;12.87;;;11.40;99.90;;;;;;5067580;28;20216;-55
2022/04/19 03:42:00;;;;;;;16.17;12.43;;;11.30;99.90;;;;;;5069386;28;20278;-53
2022/04/19 03:44:26;;;;;;;14.73;11.37;;;11.20;99.90;;;;;;5067739;28;20245;-53
2022/04/19 03:47:12;;;;;;;13.80;11.67;;;11.20;99.90;;;;;;5069147;28;20192;-54
2022/04/19 03:49:41;;;;;;;13.40;11.67;;;11.20;99.90;;;;;;5061515;28;20252;-53
2022/04/19 03:52:09;;;;;;;16.50;12.30;;;11.20;99.90;;;;;;5069962;28;20622;-54
2022/04/19 03:54:37;;;;;;;13.60;11.77;;;11.20;99.90;;;;;;5051147;28;20215;-53
2022/04/19 03:57:07;;;;;;;15.57;12.37;;;11.20;99.90;;;;;;5069374;28;20195;-53
2022/04/19 03:59:36;;;;;;;13.60;11.33;;;11.00;99.90;;;;;;5067653;28;20214;-55
2022/04/19 04:02:03;;;;;;;13.93;11.60;;;11.00;99.90;;;;;;5067256;28;20339;-55
2022/04/19 04:04:31;;;;;;;14.27;11.57;;;10.90;99.90;;;;;;5065173;28;20639;-54
2022/04/19 04:06:58;;;;;;;16.37;12.50;;;10.90;99.90;;;;;;5064799;28;20196;-56
2022/04/19 04:09:26;;;;;;;14.57;12.10;;;10.80;99.90;;;;;;5067206;28;20207;-54
2022/04/19 04:11:52;;;;;;;15.40;12.73;;;10.90;99.90;;;;;;5066942;28;20211;-53
2022/04/19 04:14:19;;;;;;;15.57;11.43;;;10.80;99.90;;;;;;5068734;28;20210;-54
2022/04/19 04:16:46;;;;;;;13.27;11.37;;;10.80;99.90;;;;;;5067627;28;20197;-53
2022/04/19 04:19:13;;;;;;;12.77;11.37;;;10.90;99.90;;;;;;5067446;28;20215;-54
2022/04/19 04:21:40;;;;;;;13.73;11.73;;;10.80;99.90;;;;;;5066790;28;20221;-55
2022/04/19 04:24:07;;;;;;;16.37;11.93;;;10.70;99.90;;;;;;5065359;28;20252;-54
2022/04/19 04:26:33;;;;;;;13.53;11.73;;;10.70;99.90;;;;;;5063115;28;20295;-54
2022/04/19 04:29:00;;;;;;;15.27;12.13;;;10.70;99.90;;;;;;5046045;28;20253;-54
2022/04/19 04:31:27;;;;;;;15.13;11.90;;;10.80;99.90;;;;;;5048173;28;20290;-54
2022/04/19 04:33:54;;;;;;;13.93;12.00;;;10.90;99.90;;;;;;5048152;28;20558;-53
2022/04/19 04:36:21;;;;;;;13.27;11.80;;;10.90;99.90;;;;;;5027226;28;21822;-53
2022/04/19 04:38:47;;;;;;;15.43;11.73;;;10.90;99.90;;;;;;5041080;28;20570;-53
2022/04/19 04:41:15;;;;;;;14.83;12.53;;;10.70;99.90;;;;;;5021505;28;20208;-52
2022/04/19 04:43:41;;;;;;;12.53;10.87;;;10.60;99.90;;;;;;5045849;28;20727;-55
2022/04/19 04:51:39;;;;;;;15.23;12.20;;;10.90;99.90;;;;;;5041825;28;20192;-54
2022/04/19 04:54:06;;;;;;;14.17;12.07;;;10.70;99.90;;;;;;5040546;28;20203;-54
2022/04/19 04:56:33;;;;;;;16.23;11.80;;;10.60;99.90;;;;;;5043297;28;20204;-53
2022/04/19 04:59:00;;;;;;;14.73;11.83;;;10.60;99.90;;;;;;5043437;28;20311;-53
2022/04/19 05:01:27;;;;;;;13.57;11.33;;;10.60;99.90;;;;;;5024266;28;20331;-53
2022/04/19 05:03:54;;;;;;;15.00;11.57;;;10.60;99.90;;;;;;5041957;28;20199;-53
2022/04/19 05:06:20;;;;;;;14.63;11.90;;;10.60;99.90;;;;;;5041057;28;20235;-53
2022/04/19 05:08:47;;;;;;;13.27;11.00;;;10.60;99.90;;;;;;5040123;28;20301;-52
2022/04/19 05:11:15;;;;;;;14.50;12.03;;;10.60;99.90;;;;;;5039051;28;20293;-52
2022/04/19 05:13:42;;;;;;;14.37;12.10;;;10.60;99.90;;;;;;5036224;28;20293;-55
2022/04/19 05:16:08;;;;;;;13.57;11.60;;;10.50;99.90;;;;;;5028048;28;20197;-55
2022/04/19 05:18:35;;;;;;;15.70;12.43;;;10.50;99.90;;;;;;5041095;28;20247;-54
2022/04/19 05:21:02;;;;;;;13.40;12.00;;;10.60;99.90;;;;;;5030622;28;20227;-53
2022/04/19 05:23:29;;;;;;;14.20;11.80;;;10.50;99.90;;;;;;5035025;28;20330;-55
2022/04/19 05:25:56;;;;;;;13.37;10.87;;;10.60;99.90;;;;;;5033943;28;20211;-55
2022/04/19 05:28:22;;;;;;;14.33;11.50;;;10.60;99.90;;;;;;5057032;28;20297;-55
2022/04/19 05:30:50;;;;;;;15.70;10.87;;;10.70;99.90;;;;;;5062287;28;20685;-55
2022/04/19 05:33:17;;;;;;;13.63;10.83;;;10.70;99.90;;;;;;5064234;28;20214;-54
2022/04/19 05:35:44;;;;;;;16.23;10.90;;;10.70;99.90;;;;;;5059131;28;20328;-52
2022/04/19 05:38:11;;;;;;;15.07;11.33;;;10.70;99.90;;;;;;5062110;28;20295;-53
2022/04/19 05:40:41;;;;;;;15.17;10.40;;;10.80;99.90;;;;;;5060407;28;20229;-53
2022/04/19 05:43:08;;;;;;;13.53;11.03;;;10.80;99.90;;;;;;5056600;28;20610;-55
2022/04/19 05:45:34;;;;;;;13.03;10.27;;;10.80;99.90;;;;;;5035554;28;20195;-54
2022/04/19 05:48:01;;;;;;;12.73;9.73;;;10.90;99.90;;;;;;5058360;28;20259;-52
2022/04/19 05:50:28;;;;;;;14.20;9.17;;;11.00;99.90;;;;;;5039876;28;21085;-54
2022/04/19 05:52:55;;;;;;;13.47;10.07;;;11.10;99.90;;;;;;5065125;28;20302;-54
2022/04/19 05:55:22;;;;;;;11.53;9.50;;;11.20;99.90;;;;;;5065422;28;20658;-54
2022/04/19 05:57:48;;;;;;;11.63;9.03;;;11.30;99.90;;;;;;5062886;28;20206;-54
2022/04/19 06:00:15;;;;;;;10.93;8.83;;;11.50;99.90;;;;;;5056266;28;20215;-53
2022/04/19 06:05:27;;;;;;;12.00;8.77;;;11.70;99.90;;;;;;5055393;28;20722;-54
2022/04/19 06:07:54;;;;;;;12.20;8.37;;;11.80;99.90;;;;;;5057964;28;20244;-53
2022/04/19 06:10:22;;;;;;;15.43;9.93;;;11.90;99.90;;;;;;5037430;28;20207;-54
2022/04/19 06:12:49;;;;;;;13.47;9.27;;;12.10;99.90;;;;;;5058674;28;20572;-54
2022/04/19 06:15:15;;;;;;;10.43;8.30;;;12.20;99.90;;;;;;5060200;28;20253;-53
2022/04/19 06:17:42;;;;;;;12.23;9.00;;;12.30;99.90;;;;;;5053639;28;20200;-55
2022/04/19 06:20:10;;;;;;;13.57;9.20;;;12.30;99.90;;;;;;5055636;28;20215;-54
2022/04/19 06:22:37;;;;;;;12.17;9.00;;;12.40;99.90;;;;;;5056211;28;20292;-54
2022/04/19 06:25:04;;;;;;;12.40;8.77;;;12.50;99.90;;;;;;5055725;28;20667;-53
2022/04/19 06:27:31;;;;;;;12.80;9.40;;;12.50;99.90;;;;;;5059956;28;20322;-54
2022/04/19 06:29:59;;;;;;;12.03;8.90;;;12.60;99.90;;;;;;5058947;28;20748;-55
2022/04/19 06:32:25;;;;;;;10.40;8.90;;;12.70;99.90;;;;;;5065214;28;20228;-54
2022/04/19 06:34:53;;;;;;;10.50;8.60;;;12.70;99.90;;;;;;5057548;28;20584;-54
2022/04/19 06:37:22;;;;;;;11.73;9.17;;;12.80;99.90;;;;;;5058162;28;20224;-54
2022/04/19 06:39:49;;;;;;;12.20;8.87;;;13.00;99.90;;;;;;5068438;28;20289;-52
2022/04/19 06:42:16;;;;;;;13.77;8.93;;;13.20;99.90;;;;;;5069322;28;20560;-54
2022/04/19 06:44:44;;;;;;;11.03;8.40;;;13.40;99.90;;;;;;5068547;28;20629;-54
2022/04/19 06:47:11;;;;;;;16.73;8.53;;;13.50;99.90;;;;;;5049231;28;20199;-55
2022/04/19 06:49:38;;;;;;;12.50;8.63;;;13.60;99.90;;;;;;5060608;28;21267;-57
2022/04/19 06:52:06;;;;;;;10.07;8.23;;;13.70;99.90;;;;;;5066935;28;20210;-54
2022/04/19 06:54:33;;;;;;;11.43;8.40;;;13.80;99.90;;;;;;5068980;28;20196;-54
2022/04/19 06:57:00;;;;;;;12.00;9.07;;;14.10;99.90;;;;;;5064918;28;20235;-54
2022/04/19 06:59:27;;;;;;;12.60;9.17;;;14.30;99.90;;;;;;5070486;28;20221;-52
2022/04/19 07:01:54;;;;;;;11.10;8.63;;;14.50;99.90;;;;;;5063618;28;20227;-54
2022/04/19 07:04:21;;;;;;;13.70;9.20;;;14.80;99.90;;;;;;5066016;28;20189;-53
2022/04/19 07:06:49;;;;;;;12.97;9.10;;;14.80;99.90;;;;;;5065590;28;20295;-53
2022/04/19 07:09:15;;;;;;;13.67;8.97;;;14.80;99.90;;;;;;5064415;28;20291;-53
2022/04/19 07:11:42;;;;;;;14.50;8.97;;;14.90;99.90;;;;;;5063584;28;20700;-53
2022/04/19 07:14:09;;;;;;;11.30;8.60;;;14.90;99.90;;;;;;5064243;28;20195;-53
2022/04/19 07:16:36;;;;;;;10.43;8.47;;;15.10;99.90;;;;;;5058396;28;20244;-53
2022/04/19 07:19:03;;;;;;;11.47;9.17;;;15.10;99.90;;;;;;5065669;28;20777;-53
2022/04/19 07:27:23;;;;;;;12.20;8.67;;;15.10;99.90;;;;;;5065742;28;20675;-53
2022/04/19 07:29:50;;;;;;;13.00;9.40;;;15.30;99.90;;;;;;5068768;28;20233;-53
2022/04/19 07:32:17;;;;;;;9.87;8.00;;;15.60;99.90;;;;;;5066458;28;20292;-52
2022/04/19 07:34:44;;;;;;;13.47;8.63;;;15.60;99.90;;;;;;5060780;28;20551;-52
2022/04/19 07:37:11;;;;;;;10.87;8.13;;;15.60;99.90;;;;;;5064804;28;20233;-52
2022/04/19 07:39:38;;;;;;;12.83;8.57;;;15.70;99.90;;;;;;5062249;28;20226;-53
2022/04/19 07:42:05;;;;;;;10.00;7.93;;;15.60;99.90;;;;;;5056819;28;20254;-52
2022/04/19 07:44:32;;;;;;;8.93;7.57;;;16.00;99.90;;;;;;5060922;28;20207;-52
2022/04/19 07:46:59;;;;;;;12.03;8.47;;;16.20;99.90;;;;;;5051499;28;20219;-53
2022/04/19 07:49:26;;;;;;;13.00;8.30;;;16.10;99.90;;;;;;5067907;28;20210;-53
2022/04/19 07:51:54;;;;;;;11.27;7.80;;;16.20;99.90;;;;;;5066606;28;20239;-53
2022/04/19 07:54:21;;;;;;;8.50;7.47;;;16.20;99.90;;;;;;5069368;28;20650;-53
2022/04/19 07:56:48;;;;;;;9.93;7.17;;;16.40;99.90;;;;;;5059560;28;20207;-53
2022/04/19 07:59:14;;;;;;;10.37;7.07;;;16.40;99.90;;;;;;5062316;28;21534;-53
2022/04/19 08:01:41;;;;;;;10.17;6.67;;;16.70;99.90;;;;;;5067843;28;20286;-53
2022/04/19 08:04:08;;;;;;;9.93;7.10;;;16.80;99.90;;;;;;5063997;28;20294;-53
2022/04/19 08:06:35;;;;;;;12.47;7.13;;;16.80;99.90;;;;;;5061495;28;20273;-53
2022/04/19 08:09:02;;;;;;;10.47;6.90;;;16.90;99.90;;;;;;5060838;28;20222;-53
2022/04/19 08:11:29;;;;;;;10.97;6.97;;;17.10;99.90;;;;;;5062731;28;20195;-53
2022/04/19 08:13:56;;;;;;;7.90;5.77;;;17.20;99.90;;;;;;5068822;28;20728;-53
2022/04/19 08:16:22;;;;;;;7.27;5.17;;;17.40;99.90;;;;;;5066295;28;20234;-52
2022/04/19 08:18:49;;;;;;;7.20;5.53;;;17.40;99.90;;;;;;5064306;28;20222;-53
2022/04/19 08:21:17;;;;;;;8.83;5.47;;;17.20;99.90;;;;;;5067724;28;20285;-53
2022/04/19 08:23:43;;;;;;;7.13;5.60;;;17.50;99.90;;;;;;5062091;28;20286;-53
2022/04/19 08:26:10;;;;;;;7.67;4.90;;;17.70;99.90;;;;;;5064510;28;20278;-56
2022/04/19 08:28:37;;;;;;;7.80;5.17;;;17.90;99.90;;;;;;5068859;28;20282;-53
2022/04/19 08:31:04;;;;;;;5.63;3.83;;;18.10;99.90;;;;;;5065390;28;20195;-53
2022/04/19 08:33:31;;;;;;;6.87;3.87;;;18.40;99.90;;;;;;5058224;28;20286;-53
2022/04/19 08:35:58;;;;;;;6.13;4.20;;;18.30;99.90;;;;;;5055111;28;20610;-53
2022/04/19 08:38:25;;;;;;;9.90;4.43;;;18.20;99.90;;;;;;5062528;28;20264;-52
2022/04/19 08:40:52;;;;;;;8.50;4.77;;;18.10;99.90;;;;;;5063037;28;20296;-53
2022/04/19 08:43:20;;;;;;;6.53;4.47;;;18.10;99.90;;;;;;5061781;28;20627;-53
2022/04/19 08:45:46;;;;;;;7.20;4.77;;;18.20;99.90;;;;;;5067507;28;20226;-53
2022/04/19 08:48:15;;;;;;;8.80;4.43;;;18.60;99.90;;;;;;5066409;28;20562;-53
2022/04/19 08:50:46;;;;;;;7.20;4.10;;;19.00;99.90;;;;;;5059647;28;20199;-53
2022/04/19 08:58:43;;;;;;;5.97;4.67;;;19.10;99.90;;;;;;5064387;28;20234;-53
2022/04/19 09:01:10;;;;;;;6.63;4.53;;;18.80;99.90;;;;;;5054809;28;20690;-52
2022/04/19 09:03:38;;;;;;;5.73;3.63;;;19.10;99.90;;;;;;5066142;28;20195;-54
2022/04/19 09:06:05;;;;;;;7.67;4.10;;;19.30;99.90;;;;;;5044439;28;20191;-53
2022/04/19 09:08:32;;;;;;;4.83;3.07;;;19.50;99.90;;;;;;5046714;28;20234;-53
2022/04/19 09:11:09;;;;;;;4.50;3.37;;;19.60;99.90;;;;;;5063353;28;20199;-53
2022/04/19 09:13:36;;;;;;;6.03;3.57;;;19.80;99.90;;;;;;5062240;28;20270;-53
2022/04/19 09:16:05;;;;;;;6.30;3.83;;;19.90;99.90;;;;;;5067465;28;20228;-53
2022/04/19 09:18:34;;;;;;;5.27;3.40;;;19.80;99.90;;;;;;5064123;28;20234;-53
2022/04/19 09:21:04;;;;;;;6.47;3.03;;;20.00;99.90;;;;;;5061531;28;20246;-53
2022/04/19 09:23:33;;;;;;;4.27;3.00;;;20.40;99.90;;;;;;5056643;28;20222;-53
2022/04/19 09:26:09;;;;;;;3.87;2.60;;;20.00;99.90;;;;;;5058438;28;20195;-53
2022/04/19 09:28:38;;;;;;;4.13;3.17;;;19.90;99.90;;;;;;5061295;28;21040;-53
2022/04/19 09:31:13;;;;;;;5.43;3.27;;;19.80;99.90;;;;;;5059082;28;20196;-53
2022/04/19 09:33:40;;;;;;;4.47;3.03;;;20.20;99.90;;;;;;5047375;28;20201;-52
2022/04/19 09:36:07;;;;;;;6.23;3.93;;;19.90;99.90;;;;;;5059210;28;20597;-53
2022/04/19 09:38:42;;;;;;;5.07;3.37;;;20.00;99.90;;;;;;5060594;28;20237;-53
2022/04/19 09:41:11;;;;;;;7.33;3.27;;;20.00;99.90;;;;;;5062771;28;20634;-54
2022/04/19 09:44:15;;;;;;;6.77;3.77;;;20.60;99.90;;;;;;5064415;28;20561;-53
2022/04/19 09:47:04;;;;;;;5.17;3.33;;;20.70;99.90;;;;;;5053698;28;20196;-51
2022/04/19 09:50:00;;;;;;;9.13;3.53;;;20.20;99.90;;;;;;5061892;28;20235;-56
2022/04/19 09:52:27;;;;;;;4.60;2.70;;;20.30;99.90;;;;;;5039341;28;20732;-53
2022/04/19 09:55:08;;;;;;;4.43;3.00;;;20.00;99.90;;;;;;5061704;28;20203;-53
2022/04/19 09:57:39;;;;;;;6.93;3.27;;;20.00;99.90;;;;;;5063897;28;20199;-54
2022/04/19 10:00:17;;;;;;;5.77;3.53;;;19.60;99.90;;;;;;5061029;28;20225;-53
2022/04/19 10:08:23;;;;;;;7.60;3.73;;;19.90;99.90;;;;;;5057213;28;20607;-53
2022/04/19 10:10:52;;;;;;;5.97;3.40;;;20.00;99.90;;;;;;5062139;28;20198;-53
2022/04/19 10:13:23;;;;;;;4.80;3.60;;;19.90;99.90;;;;;;5061699;28;20212;-53
2022/04/19 10:15:51;;;;;;;4.97;3.33;;;20.20;99.90;;;;;;5062349;28;20207;-53
2022/04/19 10:18:18;;;;;;;4.97;3.73;;;20.20;99.90;;;;;;5060682;28;20681;-52
2022/04/19 10:20:51;;;;;;;7.03;4.40;;;20.00;99.90;;;;;;5056849;28;20252;-53
2022/04/19 10:23:18;;;;;;;9.27;4.63;;;20.30;99.90;;;;;;5063960;28;20670;-53
2022/04/19 10:25:48;;;;;;;6.60;4.17;;;20.20;99.90;;;;;;5062214;28;20238;-53
2022/04/19 10:28:26;;;;;;;6.10;4.10;;;20.00;99.90;;;;;;5061429;28;20273;-53
2022/04/19 10:30:53;;;;;;;4.77;3.10;;;19.80;99.90;;;;;;5061284;28;20281;-53
2022/04/19 10:33:41;;;;;;;6.20;4.20;;;19.80;99.90;;;;;;5050760;28;20219;-53
2022/04/19 10:36:33;;;;;;;5.87;3.27;;;19.60;99.90;;;;;;5059551;28;22529;-53
2022/04/19 10:39:12;;;;;;;6.40;4.20;;;19.80;99.90;;;;;;5060838;28;20202;-53
2022/04/19 10:41:56;;;;;;;7.80;4.63;;;19.70;99.90;;;;;;5060626;28;20228;-53
2022/04/19 10:44:25;;;;;;;5.70;4.13;;;19.70;99.90;;;;;;5058770;28;20194;-54
2022/04/19 10:47:25;;;;;;;5.40;3.47;;;19.60;99.90;;;;;;5059370;28;20199;-54
2022/04/19 10:50:06;;;;;;;6.03;4.10;;;19.70;99.90;;;;;;5047307;28;20626;-54
2022/04/19 10:52:44;;;;;;;7.10;4.70;;;19.60;99.90;;;;;;5059308;28;20219;-53
2022/04/19 10:55:18;;;;;;;6.13;4.23;;;19.60;99.90;;;;;;5061694;28;20203;-54
2022/04/19 10:58:06;;;;;;;7.00;4.97;;;20.00;99.90;;;;;;5053985;28;20243;-52
2022/04/19 11:00:40;;;;;;;6.13;4.50;;;19.90;99.90;;;;;;5062865;28;20219;-53
2022/04/19 11:03:33;;;;;;;6.47;3.93;;;19.80;99.90;;;;;;5045994;28;20691;-54
2022/04/19 11:06:03;;;;;;;8.37;3.93;;;19.80;99.90;;;;;;5061343;28;20210;-53
2022/04/19 11:08:33;;;;;;;5.00;3.63;;;20.00;99.90;;;;;;5058592;28;20198;-53
2022/04/19 11:11:03;;;;;;;7.13;4.53;;;19.80;99.90;;;;;;5062407;28;20207;-53
2022/04/19 11:13:40;;;;;;;7.53;4.77;;;20.00;99.90;;;;;;5060923;28;20214;-53
2022/04/19 11:16:08;;;;;;;8.00;4.70;;;20.10;99.90;;;;;;5062184;28;20199;-53
2022/04/19 11:18:41;;;;;;;5.23;3.70;;;20.50;99.90;;;;;;5052182;28;20354;-52
2022/04/19 11:21:49;;;;;;;8.13;4.63;;;20.40;99.90;;;;;;5058089;28;20229;-53
2022/04/19 11:25:07;;;;;;;9.43;4.70;;;20.40;99.90;;;;;;5058778;28;20233;-52
2022/04/19 11:27:52;;;;;;;5.67;4.10;;;20.70;99.90;;;;;;5004733;28;20796;-54
2022/04/19 11:30:24;;;;;;;6.57;4.13;;;21.30;99.90;;;;;;5037041;28;20333;-55
2022/04/19 11:32:56;;;;;;;5.97;4.10;;;21.00;99.90;;;;;;5034757;28;20638;-53
2022/04/19 11:35:24;;;;;;;6.73;4.23;;;21.00;99.90;;;;;;5039779;28;20210;-53
2022/04/19 11:37:50;;;;;;;6.17;4.33;;;20.80;99.90;;;;;;5045734;28;20648;-56
2022/04/19 11:48:48;;;;;;;7.30;4.50;;;20.80;99.90;;;;;;5037011;28;20270;-53
2022/04/19 11:51:17;;;;;;;7.27;4.60;;;20.70;99.90;;;;;;5038790;28;20208;-54
2022/04/19 11:53:45;;;;;;;7.27;3.97;;;21.10;99.90;;;;;;5042407;28;20204;-53
2022/04/19 11:56:12;;;;;;;7.87;4.63;;;22.00;99.90;;;;;;5035386;28;20295;-55
2022/04/19 11:58:46;;;;;;;7.30;4.57;;;22.10;99.90;;;;;;5037496;28;20231;-53
2022/04/19 12:01:14;;;;;;;9.97;4.80;;;21.50;99.90;;;;;;5034845;28;20249;-52
2022/04/19 12:03:42;;;;;;;6.33;4.17;;;22.00;99.90;;;;;;5038665;28;20300;-53
2022/04/19 12:06:10;;;;;;;10.10;5.10;;;22.20;99.90;;;;;;5035752;28;20204;-51
2022/04/19 12:08:43;;;;;;;8.83;5.33;;;21.60;99.90;;;;;;5034146;28;20794;-53
2022/04/19 12:11:17;;;;;;;7.43;4.60;;;21.90;99.90;;;;;;5040507;28;20236;-53
2022/04/19 12:13:49;;;;;;;8.37;4.37;;;22.40;99.90;;;;;;5036568;28;21894;-52
2022/04/19 12:16:31;;;;;;;9.10;4.53;;;21.70;99.90;;;;;;5036910;28;20293;-52
2022/04/19 12:19:00;;;;;;;6.53;3.90;;;21.10;99.90;;;;;;5037885;28;20295;-53
2022/04/19 12:21:44;;;;;;;8.00;4.53;;;21.30;99.90;;;;;;5039188;28;20679;-53
2022/04/19 12:24:17;;;;;;;6.13;3.70;;;21.80;99.90;;;;;;5035498;28;20224;-53
2022/04/19 12:26:44;;;;;;;9.90;3.90;;;21.30;99.90;;;;;;5045475;28;20224;-53
2022/04/19 12:29:12;;;;;;;5.87;3.60;;;21.00;99.90;;;;;;5059788;28;20258;-53
2022/04/19 12:31:41;;;;;;;6.13;3.80;;;21.30;99.90;;;;;;5060743;28;20308;-53
2022/04/19 12:34:10;;;;;;;6.73;4.03;;;21.30;99.90;;;;;;5057077;28;20659;-53
2022/04/19 12:37:10;;;;;;;5.93;3.90;;;21.20;99.90;;;;;;5064055;28;20191;-54
2022/04/19 12:39:36;;;;;;;6.20;3.80;;;21.70;99.90;;;;;;5058373;28;20276;-53
2022/04/19 12:42:08;;;;;;;7.13;3.70;;;21.70;99.90;;;;;;5065725;28;20394;-53
2022/04/19 12:44:37;;;;;;;5.67;3.07;;;21.90;99.90;;;;;;5055533;28;20192;-53
2022/04/19 12:47:12;;;;;;;6.40;3.27;;;21.80;99.90;;;;;;5039552;28;20215;-54
2022/04/19 12:49:45;;;;;;;7.30;3.40;;;21.80;99.90;;;;;;5058324;28;20198;-53
2022/04/19 12:52:13;;;;;;;5.80;3.10;;;21.90;99.90;;;;;;5057890;28;20208;-53
2022/04/19 12:54:43;;;;;;;5.60;3.73;;;22.20;99.90;;;;;;5062257;28;20333;-53
2022/04/19 12:57:13;;;;;;;6.47;4.00;;;22.60;99.90;;;;;;5062845;28;20286;-53
2022/04/19 12:59:43;;;;;;;8.03;4.40;;;22.40;99.90;;;;;;5058182;28;20647;-53
2022/04/19 13:02:13;;;;;;;5.50;3.80;;;21.90;99.90;;;;;;5048650;28;20247;-54
2022/04/19 13:04:41;;;;;;;6.47;4.20;;;22.30;99.90;;;;;;5035951;28;20197;-54
2022/04/19 13:12:39;;;;;;;7.87;3.80;;;21.80;99.90;;;;;;5058313;28;20644;-53
2022/04/19 13:15:07;;;;;;;7.67;4.00;;;22.00;99.90;;;;;;5057610;28;20196;-52
2022/04/19 13:17:36;;;;;;;6.83;3.83;;;22.10;99.90;;;;;;5055179;28;20239;-52
2022/04/19 13:20:04;;;;;;;4.83;3.40;;;22.00;99.90;;;;;;5054499;28;20469;-54
2022/04/19 13:22:31;;;;;;;7.27;3.83;;;21.70;99.90;;;;;;5050758;28;20288;-52
2022/04/19 13:24:58;;;;;;;6.00;3.47;;;21.60;99.90;;;;;;5053493;28;20191;-52
2022/04/19 13:27:26;;;;;;;6.23;4.13;;;21.30;99.90;;;;;;5051936;28;20371;-53
2022/04/19 13:29:53;;;;;;;6.43;3.67;;;21.40;99.90;;;;;;5049681;28;20218;-53
2022/04/19 13:32:21;;;;;;;6.13;3.63;;;21.70;99.90;;;;;;5055977;28;20245;-54